sensor_id;sensor_type;location;lat;lon;timestamp;temperature;humidity
35523;DHT22;61478;50.820;4.330;2023-08-12T00:00:24;21.30;99.90
35523;DHT22;61478;50.820;4.330;2023-08-12T00:02:50;21.20;99.90
35523;DHT22;61478;50.820;4.330;2023-08-12T00:05:16;21.20;99.90
35523;DHT22;61478;50.820;4.330;2023-08-12T00:07:42;21.10;99.90
35523;DHT22;61478;50.820;4.330;2023-08-12T00:10:09;21.20;99.90
35523;DHT22;61478;50.820;4.330;2023-08-12T00:12:36;21.10;99.90
35523;DHT22;61478;50.820;4.330;2023-08-12T00:15:03;21.20;99.90
35523;DHT22;61478;50.820;4.330;2023-08-12T00:17:32;21.10;99.90
35523;DHT22;61478;50.820;4.330;2023-08-12T00:19:58;21.20;99.90
35523;DHT22;61478;50.820;4.330;2023-08-12T00:22:24;21.20;99.90
35523;DHT22;61478;50.820;4.330;2023-08-12T00:24:51;21.10;99.90
35523;DHT22;61478;50.820;4.330;2023-08-12T00:27:17;21.20;99.90
35523;DHT22;61478;50.820;4.330;2023-08-12T00:29:43;21.20;99.90
35523;DHT22;61478;50.820;4.330;2023-08-12T00:35:31;21.30;99.90
35523;DHT22;61478;50.820;4.330;2023-08-12T00:37:57;21.30;99.90
35523;DHT22;61478;50.820;4.330;2023-08-12T00:40:23;21.30;99.90
35523;DHT22;61478;50.820;4.330;2023-08-12T00:42:51;21.30;99.90
35523;DHT22;61478;50.820;4.330;2023-08-12T00:45:17;21.30;99.90
35523;DHT22;61478;50.820;4.330;2023-08-12T00:47:44;21.30;99.90
35523;DHT22;61478;50.820;4.330;2023-08-12T00:50:12;21.40;99.90
35523;DHT22;61478;50.820;4.330;2023-08-12T00:52:39;21.50;99.90
35523;DHT22;61478;50.820;4.330;2023-08-12T00:55:06;21.60;99.90
35523;DHT22;61478;50.820;4.330;2023-08-12T00:57:32;21.50;99.90
35523;DHT22;61478;50.820;4.330;2023-08-12T00:59:59;21.40;99.90
35523;DHT22;61478;50.820;4.330;2023-08-12T01:02:25;21.30;99.90
35523;DHT22;61478;50.820;4.330;2023-08-12T01:04:51;21.30;99.90
35523;DHT22;61478;50.820;4.330;2023-08-12T01:07:17;21.30;99.90
35523;DHT22;61478;50.820;4.330;2023-08-12T01:09:43;21.30;99.90
35523;DHT22;61478;50.820;4.330;2023-08-12T01:12:17;21.30;99.90
35523;DHT22;61478;50.820;4.330;2023-08-12T01:15:08;21.30;99.90
35523;DHT22;61478;50.820;4.330;2023-08-12T01:17:38;21.20;99.90
35523;DHT22;61478;50.820;4.330;2023-08-12T01:20:08;21.30;99.90
35523;DHT22;61478;50.820;4.330;2023-08-12T01:22:37;21.60;99.90
35523;DHT22;61478;50.820;4.330;2023-08-12T01:25:05;21.70;99.90
35523;DHT22;61478;50.820;4.330;2023-08-12T01:27:32;21.80;99.90
35523;DHT22;61478;50.820;4.330;2023-08-12T01:29:58;21.90;99.90
35523;DHT22;61478;50.820;4.330;2023-08-12T01:32:34;21.70;99.90
35523;DHT22;61478;50.820;4.330;2023-08-12T01:35:14;21.60;99.90
35523;DHT22;61478;50.820;4.330;2023-08-12T01:37:45;21.60;99.90
35523;DHT22;61478;50.820;4.330;2023-08-12T01:40:11;21.50;99.90
35523;DHT22;61478;50.820;4.330;2023-08-12T01:42:39;21.40;99.90
35523;DHT22;61478;50.820;4.330;2023-08-12T01:45:05;21.50;99.90
35523;DHT22;61478;50.820;4.330;2023-08-12T01:47:32;21.50;99.90
35523;DHT22;61478;50.820;4.330;2023-08-12T01:49:58;21.40;99.90
35523;DHT22;61478;50.820;4.330;2023-08-12T01:52:24;21.50;99.90
35523;DHT22;61478;50.820;4.330;2023-08-12T01:54:50;21.50;99.90
35523;DHT22;61478;50.820;4.330;2023-08-12T01:57:16;21.50;99.90
35523;DHT22;61478;50.820;4.330;2023-08-12T01:59:43;21.30;99.90
35523;DHT22;61478;50.820;4.330;2023-08-12T02:02:12;21.50;99.90
35523;DHT22;61478;50.820;4.330;2023-08-12T02:04:39;21.60;99.90
35523;DHT22;61478;50.820;4.330;2023-08-12T02:07:05;21.60;99.90
35523;DHT22;61478;50.820;4.330;2023-08-12T02:09:31;21.70;99.90
35523;DHT22;61478;50.820;4.330;2023-08-12T02:11:57;21.60;99.90
35523;DHT22;61478;50.820;4.330;2023-08-12T02:14:23;21.50;99.90
35523;DHT22;61478;50.820;4.330;2023-08-12T02:16:49;21.50;99.90
35523;DHT22;61478;50.820;4.330;2023-08-12T02:19:15;21.60;99.90
35523;DHT22;61478;50.820;4.330;2023-08-12T02:21:42;21.70;99.90
35523;DHT22;61478;50.820;4.330;2023-08-12T02:24:08;21.60;99.90
35523;DHT22;61478;50.820;4.330;2023-08-12T02:26:34;21.60;99.90
35523;DHT22;61478;50.820;4.330;2023-08-12T02:29:00;21.60;99.90
35523;DHT22;61478;50.820;4.330;2023-08-12T02:31:26;21.60;99.90
35523;DHT22;61478;50.820;4.330;2023-08-12T02:33:52;21.70;99.90
35523;DHT22;61478;50.820;4.330;2023-08-12T02:36:18;21.70;99.90
35523;DHT22;61478;50.820;4.330;2023-08-12T02:38:44;21.70;99.90
35523;DHT22;61478;50.820;4.330;2023-08-12T02:41:10;21.50;99.90
35523;DHT22;61478;50.820;4.330;2023-08-12T02:43:36;21.30;99.90
35523;DHT22;61478;50.820;4.330;2023-08-12T02:46:02;21.20;99.90
35523;DHT22;61478;50.820;4.330;2023-08-12T02:48:28;21.10;99.90
35523;DHT22;61478;50.820;4.330;2023-08-12T02:50:54;21.00;99.90
35523;DHT22;61478;50.820;4.330;2023-08-12T02:53:20;21.00;99.90
35523;DHT22;61478;50.820;4.330;2023-08-12T02:55:46;21.00;99.90
35523;DHT22;61478;50.820;4.330;2023-08-12T02:58:12;20.90;99.90
35523;DHT22;61478;50.820;4.330;2023-08-12T03:00:41;20.90;99.90
35523;DHT22;61478;50.820;4.330;2023-08-12T03:03:09;20.90;99.90
35523;DHT22;61478;50.820;4.330;2023-08-12T03:05:35;20.90;99.90
35523;DHT22;61478;50.820;4.330;2023-08-12T03:08:01;20.90;99.90
35523;DHT22;61478;50.820;4.330;2023-08-12T03:10:29;20.90;99.90
35523;DHT22;61478;50.820;4.330;2023-08-12T03:12:55;20.90;99.90
35523;DHT22;61478;50.820;4.330;2023-08-12T03:15:21;21.00;99.90
35523;DHT22;61478;50.820;4.330;2023-08-12T03:17:47;21.30;99.90
35523;DHT22;61478;50.820;4.330;2023-08-12T03:20:13;21.60;99.90
35523;DHT22;61478;50.820;4.330;2023-08-12T03:22:39;21.70;99.90
35523;DHT22;61478;50.820;4.330;2023-08-12T03:25:05;21.80;99.90
35523;DHT22;61478;50.820;4.330;2023-08-12T03:27:31;21.80;99.90
35523;DHT22;61478;50.820;4.330;2023-08-12T03:29:57;21.60;99.90
35523;DHT22;61478;50.820;4.330;2023-08-12T03:32:24;21.50;99.90
35523;DHT22;61478;50.820;4.330;2023-08-12T03:34:51;21.30;99.90
35523;DHT22;61478;50.820;4.330;2023-08-12T03:37:17;21.10;99.90
35523;DHT22;61478;50.820;4.330;2023-08-12T03:39:43;20.90;99.90
35523;DHT22;61478;50.820;4.330;2023-08-12T03:42:08;20.80;99.90
35523;DHT22;61478;50.820;4.330;2023-08-12T03:44:34;20.60;99.90
35523;DHT22;61478;50.820;4.330;2023-08-12T03:47:00;20.50;99.90
35523;DHT22;61478;50.820;4.330;2023-08-12T03:49:26;20.50;99.90
35523;DHT22;61478;50.820;4.330;2023-08-12T03:51:52;20.50;99.90
35523;DHT22;61478;50.820;4.330;2023-08-12T03:54:18;20.40;99.90
35523;DHT22;61478;50.820;4.330;2023-08-12T03:56:44;20.40;99.90
35523;DHT22;61478;50.820;4.330;2023-08-12T03:59:10;20.30;99.90
35523;DHT22;61478;50.820;4.330;2023-08-12T04:01:37;20.40;99.90
35523;DHT22;61478;50.820;4.330;2023-08-12T04:04:03;20.50;99.90
35523;DHT22;61478;50.820;4.330;2023-08-12T04:06:29;20.40;99.90
35523;DHT22;61478;50.820;4.330;2023-08-12T04:08:54;20.40;99.90
35523;DHT22;61478;50.820;4.330;2023-08-12T04:11:21;20.40;99.90
35523;DHT22;61478;50.820;4.330;2023-08-12T04:13:46;20.40;99.90
35523;DHT22;61478;50.820;4.330;2023-08-12T04:16:13;20.30;99.90
35523;DHT22;61478;50.820;4.330;2023-08-12T04:18:39;20.40;99.90
35523;DHT22;61478;50.820;4.330;2023-08-12T04:21:04;20.30;99.90
35523;DHT22;61478;50.820;4.330;2023-08-12T04:23:30;20.30;99.90
35523;DHT22;61478;50.820;4.330;2023-08-12T04:25:56;20.30;99.90
35523;DHT22;61478;50.820;4.330;2023-08-12T04:28:22;20.30;99.90
35523;DHT22;61478;50.820;4.330;2023-08-12T04:30:49;20.30;99.90
35523;DHT22;61478;50.820;4.330;2023-08-12T04:33:18;20.40;99.90
35523;DHT22;61478;50.820;4.330;2023-08-12T04:35:47;20.40;99.90
35523;DHT22;61478;50.820;4.330;2023-08-12T04:38:13;20.40;99.90
35523;DHT22;61478;50.820;4.330;2023-08-12T04:40:39;20.30;99.90
35523;DHT22;61478;50.820;4.330;2023-08-12T04:43:06;20.40;99.90
35523;DHT22;61478;50.820;4.330;2023-08-12T04:45:32;20.40;99.90
35523;DHT22;61478;50.820;4.330;2023-08-12T04:47:58;20.40;99.90
35523;DHT22;61478;50.820;4.330;2023-08-12T04:50:25;20.40;99.90
35523;DHT22;61478;50.820;4.330;2023-08-12T04:52:51;20.40;99.90
35523;DHT22;61478;50.820;4.330;2023-08-12T04:55:17;20.40;99.90
35523;DHT22;61478;50.820;4.330;2023-08-12T04:57:43;20.40;99.90
35523;DHT22;61478;50.820;4.330;2023-08-12T05:00:09;20.40;99.90
35523;DHT22;61478;50.820;4.330;2023-08-12T05:02:35;20.50;99.90
35523;DHT22;61478;50.820;4.330;2023-08-12T05:05:01;20.40;99.90
35523;DHT22;61478;50.820;4.330;2023-08-12T05:07:27;20.40;99.90
35523;DHT22;61478;50.820;4.330;2023-08-12T05:09:53;20.40;99.90
35523;DHT22;61478;50.820;4.330;2023-08-12T05:12:19;20.40;99.90
35523;DHT22;61478;50.820;4.330;2023-08-12T05:14:45;20.40;99.90
35523;DHT22;61478;50.820;4.330;2023-08-12T05:17:11;20.40;99.90
35523;DHT22;61478;50.820;4.330;2023-08-12T05:19:37;20.30;99.90
35523;DHT22;61478;50.820;4.330;2023-08-12T05:22:03;20.30;99.90
35523;DHT22;61478;50.820;4.330;2023-08-12T05:24:29;20.30;99.90
35523;DHT22;61478;50.820;4.330;2023-08-12T05:26:55;20.30;99.90
35523;DHT22;61478;50.820;4.330;2023-08-12T05:29:20;20.30;99.90
35523;DHT22;61478;50.820;4.330;2023-08-12T05:31:46;20.20;99.90
35523;DHT22;61478;50.820;4.330;2023-08-12T05:34:12;20.20;99.90
35523;DHT22;61478;50.820;4.330;2023-08-12T05:36:38;20.30;99.90
35523;DHT22;61478;50.820;4.330;2023-08-12T05:39:04;20.20;99.90
35523;DHT22;61478;50.820;4.330;2023-08-12T05:41:30;20.20;99.90
35523;DHT22;61478;50.820;4.330;2023-08-12T05:43:56;20.30;99.90
35523;DHT22;61478;50.820;4.330;2023-08-12T05:46:22;20.30;99.90
35523;DHT22;61478;50.820;4.330;2023-08-12T05:48:48;20.20;99.90
35523;DHT22;61478;50.820;4.330;2023-08-12T05:51:14;20.20;99.90
35523;DHT22;61478;50.820;4.330;2023-08-12T05:53:39;20.20;99.90
35523;DHT22;61478;50.820;4.330;2023-08-12T05:56:05;20.20;99.90
35523;DHT22;61478;50.820;4.330;2023-08-12T05:58:31;20.20;99.90
35523;DHT22;61478;50.820;4.330;2023-08-12T06:00:57;20.20;99.90
35523;DHT22;61478;50.820;4.330;2023-08-12T06:03:23;20.20;99.90
35523;DHT22;61478;50.820;4.330;2023-08-12T06:05:49;20.20;99.90
35523;DHT22;61478;50.820;4.330;2023-08-12T06:08:17;20.20;99.90
35523;DHT22;61478;50.820;4.330;2023-08-12T06:10:43;20.20;99.90
35523;DHT22;61478;50.820;4.330;2023-08-12T06:13:09;20.20;99.90
35523;DHT22;61478;50.820;4.330;2023-08-12T06:15:35;20.20;99.90
35523;DHT22;61478;50.820;4.330;2023-08-12T06:18:02;20.20;99.90
35523;DHT22;61478;50.820;4.330;2023-08-12T06:20:28;20.10;99.90
35523;DHT22;61478;50.820;4.330;2023-08-12T06:22:54;20.10;99.90
35523;DHT22;61478;50.820;4.330;2023-08-12T06:25:20;20.20;99.90
35523;DHT22;61478;50.820;4.330;2023-08-12T06:27:46;20.10;99.90
35523;DHT22;61478;50.820;4.330;2023-08-12T06:30:13;20.20;99.90
35523;DHT22;61478;50.820;4.330;2023-08-12T06:32:40;20.20;99.90
35523;DHT22;61478;50.820;4.330;2023-08-12T06:35:06;20.20;99.90
35523;DHT22;61478;50.820;4.330;2023-08-12T06:37:32;20.30;99.90
35523;DHT22;61478;50.820;4.330;2023-08-12T06:39:58;20.30;99.90
35523;DHT22;61478;50.820;4.330;2023-08-12T06:42:24;20.30;99.90
35523;DHT22;61478;50.820;4.330;2023-08-12T06:44:58;20.40;99.90
35523;DHT22;61478;50.820;4.330;2023-08-12T06:47:24;20.40;99.90
35523;DHT22;61478;50.820;4.330;2023-08-12T06:49:51;20.30;99.90
35523;DHT22;61478;50.820;4.330;2023-08-12T06:52:17;20.40;99.90
35523;DHT22;61478;50.820;4.330;2023-08-12T06:54:43;20.40;99.90
35523;DHT22;61478;50.820;4.330;2023-08-12T06:57:10;20.30;99.90
35523;DHT22;61478;50.820;4.330;2023-08-12T06:59:38;20.30;99.90
35523;DHT22;61478;50.820;4.330;2023-08-12T07:02:04;20.30;99.90
35523;DHT22;61478;50.820;4.330;2023-08-12T07:04:31;20.30;99.90
35523;DHT22;61478;50.820;4.330;2023-08-12T07:06:56;20.20;99.90
35523;DHT22;61478;50.820;4.330;2023-08-12T07:09:22;20.10;99.90
35523;DHT22;61478;50.820;4.330;2023-08-12T07:11:48;20.00;99.90
35523;DHT22;61478;50.820;4.330;2023-08-12T07:14:14;20.00;99.90
35523;DHT22;61478;50.820;4.330;2023-08-12T07:16:40;20.00;99.90
35523;DHT22;61478;50.820;4.330;2023-08-12T07:19:06;20.00;99.90
35523;DHT22;61478;50.820;4.330;2023-08-12T07:21:35;20.00;99.90
35523;DHT22;61478;50.820;4.330;2023-08-12T07:24:04;19.90;99.90
35523;DHT22;61478;50.820;4.330;2023-08-12T07:26:33;19.90;99.90
35523;DHT22;61478;50.820;4.330;2023-08-12T07:29:04;19.90;99.90
35523;DHT22;61478;50.820;4.330;2023-08-12T07:31:34;19.90;99.90
35523;DHT22;61478;50.820;4.330;2023-08-12T07:34:05;19.90;99.90
35523;DHT22;61478;50.820;4.330;2023-08-12T07:36:32;19.90;99.90
35523;DHT22;61478;50.820;4.330;2023-08-12T07:39:01;19.90;99.90
35523;DHT22;61478;50.820;4.330;2023-08-12T07:41:38;19.90;99.90
35523;DHT22;61478;50.820;4.330;2023-08-12T07:44:05;20.00;99.90
35523;DHT22;61478;50.820;4.330;2023-08-12T07:46:33;19.90;99.90
35523;DHT22;61478;50.820;4.330;2023-08-12T07:49:06;19.90;99.90
35523;DHT22;61478;50.820;4.330;2023-08-12T07:51:37;19.90;99.90
35523;DHT22;61478;50.820;4.330;2023-08-12T07:54:03;19.80;99.90
35523;DHT22;61478;50.820;4.330;2023-08-12T07:56:29;19.80;99.90
35523;DHT22;61478;50.820;4.330;2023-08-12T07:58:58;19.80;99.90
35523;DHT22;61478;50.820;4.330;2023-08-12T08:01:32;19.80;99.90
35523;DHT22;61478;50.820;4.330;2023-08-12T08:03:59;19.90;99.90
35523;DHT22;61478;50.820;4.330;2023-08-12T08:06:25;19.80;99.90
35523;DHT22;61478;50.820;4.330;2023-08-12T08:08:54;19.70;99.90
35523;DHT22;61478;50.820;4.330;2023-08-12T08:11:24;19.70;99.90
35523;DHT22;61478;50.820;4.330;2023-08-12T08:13:51;19.60;99.90
35523;DHT22;61478;50.820;4.330;2023-08-12T08:16:26;19.50;99.90
35523;DHT22;61478;50.820;4.330;2023-08-12T08:18:52;19.60;99.90
35523;DHT22;61478;50.820;4.330;2023-08-12T08:21:18;19.50;99.90
35523;DHT22;61478;50.820;4.330;2023-08-12T08:23:44;19.60;99.90
35523;DHT22;61478;50.820;4.330;2023-08-12T08:26:10;19.70;99.90
35523;DHT22;61478;50.820;4.330;2023-08-12T08:28:38;19.70;99.90
35523;DHT22;61478;50.820;4.330;2023-08-12T08:31:04;19.70;99.90
35523;DHT22;61478;50.820;4.330;2023-08-12T08:33:30;19.70;99.90
35523;DHT22;61478;50.820;4.330;2023-08-12T08:35:56;19.70;99.90
35523;DHT22;61478;50.820;4.330;2023-08-12T08:38:22;19.90;99.90
35523;DHT22;61478;50.820;4.330;2023-08-12T08:40:51;19.80;99.90
35523;DHT22;61478;50.820;4.330;2023-08-12T08:43:21;19.90;99.90
35523;DHT22;61478;50.820;4.330;2023-08-12T08:45:52;19.80;99.90
35523;DHT22;61478;50.820;4.330;2023-08-12T08:48:19;19.70;99.90
35523;DHT22;61478;50.820;4.330;2023-08-12T08:50:47;19.80;99.90
35523;DHT22;61478;50.820;4.330;2023-08-12T08:53:14;19.70;99.90
35523;DHT22;61478;50.820;4.330;2023-08-12T08:55:41;19.60;99.90
35523;DHT22;61478;50.820;4.330;2023-08-12T08:58:07;19.60;99.90
35523;DHT22;61478;50.820;4.330;2023-08-12T09:00:33;19.60;99.90
35523;DHT22;61478;50.820;4.330;2023-08-12T09:03:01;19.80;99.90
35523;DHT22;61478;50.820;4.330;2023-08-12T09:05:28;20.00;99.90
35523;DHT22;61478;50.820;4.330;2023-08-12T09:07:56;20.00;99.90
35523;DHT22;61478;50.820;4.330;2023-08-12T09:10:26;20.00;99.90
35523;DHT22;61478;50.820;4.330;2023-08-12T09:12:56;20.00;99.90
35523;DHT22;61478;50.820;4.330;2023-08-12T09:15:22;20.00;99.90
35523;DHT22;61478;50.820;4.330;2023-08-12T09:17:48;20.20;99.90
35523;DHT22;61478;50.820;4.330;2023-08-12T09:20:14;20.20;99.90
35523;DHT22;61478;50.820;4.330;2023-08-12T09:22:40;20.30;99.90
35523;DHT22;61478;50.820;4.330;2023-08-12T09:25:08;20.50;99.90
35523;DHT22;61478;50.820;4.330;2023-08-12T09:27:36;20.70;99.90
35523;DHT22;61478;50.820;4.330;2023-08-12T09:30:04;20.70;99.90
35523;DHT22;61478;50.820;4.330;2023-08-12T09:32:30;20.60;99.90
35523;DHT22;61478;50.820;4.330;2023-08-12T09:34:56;20.60;99.90
35523;DHT22;61478;50.820;4.330;2023-08-12T09:37:24;20.30;99.90
35523;DHT22;61478;50.820;4.330;2023-08-12T09:39:52;20.20;99.90
35523;DHT22;61478;50.820;4.330;2023-08-12T09:42:19;20.20;99.90
35523;DHT22;61478;50.820;4.330;2023-08-12T09:44:45;20.10;99.90
35523;DHT22;61478;50.820;4.330;2023-08-12T09:47:14;20.10;99.90
35523;DHT22;61478;50.820;4.330;2023-08-12T09:49:40;20.10;99.90
35523;DHT22;61478;50.820;4.330;2023-08-12T09:52:07;20.10;99.90
35523;DHT22;61478;50.820;4.330;2023-08-12T09:54:34;20.10;99.90
35523;DHT22;61478;50.820;4.330;2023-08-12T09:57:01;20.10;99.90
35523;DHT22;61478;50.820;4.330;2023-08-12T09:59:30;20.20;99.90
35523;DHT22;61478;50.820;4.330;2023-08-12T10:01:58;20.20;99.90
35523;DHT22;61478;50.820;4.330;2023-08-12T10:04:27;20.30;99.90
35523;DHT22;61478;50.820;4.330;2023-08-12T10:06:54;20.30;99.90
35523;DHT22;61478;50.820;4.330;2023-08-12T10:09:21;20.50;99.90
35523;DHT22;61478;50.820;4.330;2023-08-12T10:11:47;20.70;99.90
35523;DHT22;61478;50.820;4.330;2023-08-12T10:14:14;20.80;99.90
35523;DHT22;61478;50.820;4.330;2023-08-12T10:16:46;20.90;99.90
35523;DHT22;61478;50.820;4.330;2023-08-12T10:19:12;20.80;99.90
35523;DHT22;61478;50.820;4.330;2023-08-12T10:21:41;20.80;99.90
35523;DHT22;61478;50.820;4.330;2023-08-12T10:24:09;20.90;99.90
35523;DHT22;61478;50.820;4.330;2023-08-12T10:26:35;21.10;99.90
35523;DHT22;61478;50.820;4.330;2023-08-12T10:29:02;21.30;99.90
35523;DHT22;61478;50.820;4.330;2023-08-12T10:31:28;21.60;99.90
35523;DHT22;61478;50.820;4.330;2023-08-12T10:33:56;21.90;99.90
35523;DHT22;61478;50.820;4.330;2023-08-12T10:36:22;21.70;99.90
35523;DHT22;61478;50.820;4.330;2023-08-12T10:38:49;22.00;99.90
35523;DHT22;61478;50.820;4.330;2023-08-12T10:41:20;22.30;99.90
35523;DHT22;61478;50.820;4.330;2023-08-12T10:43:58;22.50;99.90
35523;DHT22;61478;50.820;4.330;2023-08-12T10:46:34;23.00;99.90
35523;DHT22;61478;50.820;4.330;2023-08-12T10:49:08;23.40;99.90
35523;DHT22;61478;50.820;4.330;2023-08-12T10:51:52;23.50;99.90
35523;DHT22;61478;50.820;4.330;2023-08-12T10:54:28;23.80;99.90
35523;DHT22;61478;50.820;4.330;2023-08-12T10:57:03;23.70;99.90
35523;DHT22;61478;50.820;4.330;2023-08-12T11:02:18;23.80;99.90
35523;DHT22;61478;50.820;4.330;2023-08-12T11:04:44;24.00;99.90
35523;DHT22;61478;50.820;4.330;2023-08-12T11:07:18;24.20;99.90
35523;DHT22;61478;50.820;4.330;2023-08-12T11:09:45;24.10;99.90
35523;DHT22;61478;50.820;4.330;2023-08-12T11:12:17;24.10;99.90
35523;DHT22;61478;50.820;4.330;2023-08-12T11:14:48;24.30;99.90
35523;DHT22;61478;50.820;4.330;2023-08-12T11:17:15;24.00;99.90
35523;DHT22;61478;50.820;4.330;2023-08-12T11:19:42;24.30;99.90
35523;DHT22;61478;50.820;4.330;2023-08-12T11:22:08;24.40;99.90
35523;DHT22;61478;50.820;4.330;2023-08-12T11:24:35;24.60;99.90
35523;DHT22;61478;50.820;4.330;2023-08-12T11:27:02;24.40;99.90
35523;DHT22;61478;50.820;4.330;2023-08-12T11:29:28;24.30;99.90
35523;DHT22;61478;50.820;4.330;2023-08-12T11:31:54;24.20;99.90
35523;DHT22;61478;50.820;4.330;2023-08-12T11:34:20;24.10;99.90
35523;DHT22;61478;50.820;4.330;2023-08-12T11:36:46;24.10;99.90
35523;DHT22;61478;50.820;4.330;2023-08-12T11:39:12;24.20;99.90
35523;DHT22;61478;50.820;4.330;2023-08-12T11:41:38;24.10;99.90
35523;DHT22;61478;50.820;4.330;2023-08-12T11:44:04;24.20;99.90
35523;DHT22;61478;50.820;4.330;2023-08-12T11:46:33;24.30;99.90
35523;DHT22;61478;50.820;4.330;2023-08-12T11:48:59;24.50;99.90
35523;DHT22;61478;50.820;4.330;2023-08-12T11:51:25;24.60;99.90
35523;DHT22;61478;50.820;4.330;2023-08-12T11:53:51;24.80;99.90
35523;DHT22;61478;50.820;4.330;2023-08-12T11:56:17;24.80;99.90
35523;DHT22;61478;50.820;4.330;2023-08-12T11:58:43;24.50;99.90
35523;DHT22;61478;50.820;4.330;2023-08-12T12:01:09;24.50;99.90
35523;DHT22;61478;50.820;4.330;2023-08-12T12:03:35;24.70;99.90
35523;DHT22;61478;50.820;4.330;2023-08-12T12:06:01;24.80;99.90
35523;DHT22;61478;50.820;4.330;2023-08-12T12:08:31;25.00;99.90
35523;DHT22;61478;50.820;4.330;2023-08-12T12:10:57;25.00;99.90
35523;DHT22;61478;50.820;4.330;2023-08-12T12:13:30;25.10;99.90
35523;DHT22;61478;50.820;4.330;2023-08-12T12:15:57;25.00;99.90
35523;DHT22;61478;50.820;4.330;2023-08-12T12:18:25;25.00;99.90
35523;DHT22;61478;50.820;4.330;2023-08-12T12:20:58;25.00;99.90
35523;DHT22;61478;50.820;4.330;2023-08-12T12:23:31;25.00;99.90
35523;DHT22;61478;50.820;4.330;2023-08-12T12:26:01;25.00;99.90
35523;DHT22;61478;50.820;4.330;2023-08-12T12:28:27;25.10;99.90
35523;DHT22;61478;50.820;4.330;2023-08-12T12:30:54;25.10;99.90
35523;DHT22;61478;50.820;4.330;2023-08-12T12:33:19;25.20;99.90
35523;DHT22;61478;50.820;4.330;2023-08-12T12:35:45;25.20;99.90
35523;DHT22;61478;50.820;4.330;2023-08-12T12:38:11;25.20;99.90
35523;DHT22;61478;50.820;4.330;2023-08-12T12:40:37;25.10;99.90
35523;DHT22;61478;50.820;4.330;2023-08-12T12:43:04;25.00;99.90
35523;DHT22;61478;50.820;4.330;2023-08-12T12:45:30;25.10;99.90
35523;DHT22;61478;50.820;4.330;2023-08-12T12:47:56;25.30;99.90
35523;DHT22;61478;50.820;4.330;2023-08-12T12:50:25;25.30;99.90
35523;DHT22;61478;50.820;4.330;2023-08-12T12:52:51;25.40;99.90
35523;DHT22;61478;50.820;4.330;2023-08-12T12:55:17;25.30;99.90
35523;DHT22;61478;50.820;4.330;2023-08-12T12:57:43;25.50;99.90
35523;DHT22;61478;50.820;4.330;2023-08-12T13:00:09;25.60;99.90
35523;DHT22;61478;50.820;4.330;2023-08-12T13:02:37;25.50;99.90
35523;DHT22;61478;50.820;4.330;2023-08-12T13:05:03;25.50;99.90
35523;DHT22;61478;50.820;4.330;2023-08-12T13:07:29;25.40;99.90
35523;DHT22;61478;50.820;4.330;2023-08-12T13:09:55;25.50;99.90
35523;DHT22;61478;50.820;4.330;2023-08-12T13:12:21;25.50;99.90
35523;DHT22;61478;50.820;4.330;2023-08-12T13:14:47;25.60;99.90
35523;DHT22;61478;50.820;4.330;2023-08-12T13:17:12;25.50;99.90
35523;DHT22;61478;50.820;4.330;2023-08-12T13:19:38;25.50;99.90
35523;DHT22;61478;50.820;4.330;2023-08-12T13:22:04;25.40;99.90
35523;DHT22;61478;50.820;4.330;2023-08-12T13:24:30;25.30;99.90
35523;DHT22;61478;50.820;4.330;2023-08-12T13:26:56;25.20;99.90
35523;DHT22;61478;50.820;4.330;2023-08-12T13:29:22;25.20;99.90
35523;DHT22;61478;50.820;4.330;2023-08-12T13:31:49;25.20;99.90
35523;DHT22;61478;50.820;4.330;2023-08-12T13:34:15;25.20;99.90
35523;DHT22;61478;50.820;4.330;2023-08-12T13:36:41;25.20;99.90
35523;DHT22;61478;50.820;4.330;2023-08-12T13:39:06;25.20;99.90
35523;DHT22;61478;50.820;4.330;2023-08-12T13:41:32;25.30;99.90
35523;DHT22;61478;50.820;4.330;2023-08-12T13:43:58;25.20;99.90
35523;DHT22;61478;50.820;4.330;2023-08-12T13:46:24;25.20;99.90
35523;DHT22;61478;50.820;4.330;2023-08-12T13:48:50;25.20;99.90
35523;DHT22;61478;50.820;4.330;2023-08-12T13:51:15;25.10;99.90
35523;DHT22;61478;50.820;4.330;2023-08-12T13:53:41;25.30;99.90
35523;DHT22;61478;50.820;4.330;2023-08-12T13:56:07;25.30;99.90
35523;DHT22;61478;50.820;4.330;2023-08-12T13:58:33;25.50;99.90
35523;DHT22;61478;50.820;4.330;2023-08-12T14:00:59;25.30;99.90
35523;DHT22;61478;50.820;4.330;2023-08-12T14:03:25;25.30;99.90
35523;DHT22;61478;50.820;4.330;2023-08-12T14:05:51;25.30;99.90
35523;DHT22;61478;50.820;4.330;2023-08-12T14:08:16;25.20;99.90
35523;DHT22;61478;50.820;4.330;2023-08-12T14:10:42;25.30;99.90
35523;DHT22;61478;50.820;4.330;2023-08-12T14:13:08;25.20;99.90
35523;DHT22;61478;50.820;4.330;2023-08-12T14:15:34;25.10;99.90
35523;DHT22;61478;50.820;4.330;2023-08-12T14:18:00;25.10;99.90
35523;DHT22;61478;50.820;4.330;2023-08-12T14:20:26;25.30;99.90
35523;DHT22;61478;50.820;4.330;2023-08-12T14:22:52;25.30;99.90
35523;DHT22;61478;50.820;4.330;2023-08-12T14:25:18;25.30;99.90
35523;DHT22;61478;50.820;4.330;2023-08-12T14:27:44;25.30;99.90
35523;DHT22;61478;50.820;4.330;2023-08-12T14:30:10;25.30;99.90
35523;DHT22;61478;50.820;4.330;2023-08-12T14:32:41;25.00;99.90
35523;DHT22;61478;50.820;4.330;2023-08-12T14:35:07;24.90;99.90
35523;DHT22;61478;50.820;4.330;2023-08-12T14:37:33;24.80;99.90
35523;DHT22;61478;50.820;4.330;2023-08-12T14:39:59;24.80;99.90
35523;DHT22;61478;50.820;4.330;2023-08-12T14:42:25;24.90;99.90
35523;DHT22;61478;50.820;4.330;2023-08-12T14:44:51;24.90;99.90
35523;DHT22;61478;50.820;4.330;2023-08-12T14:47:17;25.00;99.90
35523;DHT22;61478;50.820;4.330;2023-08-12T14:49:44;25.10;99.90
35523;DHT22;61478;50.820;4.330;2023-08-12T14:52:20;25.20;99.90
35523;DHT22;61478;50.820;4.330;2023-08-12T14:54:46;25.10;99.90
35523;DHT22;61478;50.820;4.330;2023-08-12T14:57:12;24.90;99.90
35523;DHT22;61478;50.820;4.330;2023-08-12T14:59:38;24.80;99.90
35523;DHT22;61478;50.820;4.330;2023-08-12T15:02:04;24.70;99.90
35523;DHT22;61478;50.820;4.330;2023-08-12T15:04:31;24.60;99.90
35523;DHT22;61478;50.820;4.330;2023-08-12T15:06:57;24.60;99.90
35523;DHT22;61478;50.820;4.330;2023-08-12T15:09:23;24.60;99.90
35523;DHT22;61478;50.820;4.330;2023-08-12T15:11:49;24.80;99.90
35523;DHT22;61478;50.820;4.330;2023-08-12T15:14:15;24.90;99.90
35523;DHT22;61478;50.820;4.330;2023-08-12T15:16:41;25.00;99.90
35523;DHT22;61478;50.820;4.330;2023-08-12T15:19:07;25.00;99.90
35523;DHT22;61478;50.820;4.330;2023-08-12T15:21:33;25.00;99.90
35523;DHT22;61478;50.820;4.330;2023-08-12T15:24:00;25.00;99.90
35523;DHT22;61478;50.820;4.330;2023-08-12T15:26:25;25.00;99.90
35523;DHT22;61478;50.820;4.330;2023-08-12T15:28:51;24.90;99.90
35523;DHT22;61478;50.820;4.330;2023-08-12T15:31:17;25.00;99.90
35523;DHT22;61478;50.820;4.330;2023-08-12T15:33:43;25.00;99.90